sensor_id;sensor_type;location;lat;lon;timestamp;P1;durP1;ratioP1;P2;durP2;ratioP2
43311;SDS011;30041;48.300;16.352;2023-11-19T00:02:09;1.85;;;1.00;;
43311;SDS011;30041;48.300;16.352;2023-11-19T00:04:38;1.40;;;1.00;;
43311;SDS011;30041;48.300;16.352;2023-11-19T00:07:03;1.95;;;1.10;;
43311;SDS011;30041;48.300;16.352;2023-11-19T00:09:29;2.55;;;1.17;;
43311;SDS011;30041;48.300;16.352;2023-11-19T00:11:54;1.67;;;1.10;;
43311;SDS011;30041;48.300;16.352;2023-11-19T00:14:19;1.77;;;1.00;;
43311;SDS011;30041;48.300;16.352;2023-11-19T00:16:45;2.35;;;1.13;;
43311;SDS011;30041;48.300;16.352;2023-11-19T00:19:10;1.73;;;1.00;;
43311;SDS011;30041;48.300;16.352;2023-11-19T00:21:36;1.60;;;0.90;;
43311;SDS011;30041;48.300;16.352;2023-11-19T00:24:01;2.05;;;1.00;;
43311;SDS011;30041;48.300;16.352;2023-11-19T00:26:26;1.90;;;1.00;;
43311;SDS011;30041;48.300;16.352;2023-11-19T00:28:52;2.67;;;1.17;;
43311;SDS011;30041;48.300;16.352;2023-11-19T00:31:17;1.50;;;0.90;;
43311;SDS011;30041;48.300;16.352;2023-11-19T00:33:43;1.88;;;1.00;;
43311;SDS011;30041;48.300;16.352;2023-11-19T00:36:08;1.80;;;1.00;;
43311;SDS011;30041;48.300;16.352;2023-11-19T00:38:34;1.80;;;1.10;;
43311;SDS011;30041;48.300;16.352;2023-11-19T00:40:59;1.45;;;1.00;;
43311;SDS011;30041;48.300;16.352;2023-11-19T00:43:25;1.45;;;1.00;;
43311;SDS011;30041;48.300;16.352;2023-11-19T00:45:50;1.60;;;1.05;;
43311;SDS011;30041;48.300;16.352;2023-11-19T00:48:16;3.05;;;1.25;;
43311;SDS011;30041;48.300;16.352;2023-11-19T00:50:41;1.63;;;1.10;;
43311;SDS011;30041;48.300;16.352;2023-11-19T00:53:07;1.55;;;1.00;;
43311;SDS011;30041;48.300;16.352;2023-11-19T00:55:32;1.30;;;0.90;;
43311;SDS011;30041;48.300;16.352;2023-11-19T00:57:57;2.05;;;1.20;;
43311;SDS011;30041;48.300;16.352;2023-11-19T01:00:23;1.90;;;0.90;;
43311;SDS011;30041;48.300;16.352;2023-11-19T01:02:48;1.90;;;1.02;;
43311;SDS011;30041;48.300;16.352;2023-11-19T01:05:13;1.30;;;0.90;;
43311;SDS011;30041;48.300;16.352;2023-11-19T01:07:39;1.98;;;1.00;;
43311;SDS011;30041;48.300;16.352;2023-11-19T01:10:05;1.33;;;0.98;;
43311;SDS011;30041;48.300;16.352;2023-11-19T01:12:30;1.50;;;0.90;;
43311;SDS011;30041;48.300;16.352;2023-11-19T01:14:56;1.55;;;0.90;;
43311;SDS011;30041;48.300;16.352;2023-11-19T01:17:21;1.60;;;1.08;;
43311;SDS011;30041;48.300;16.352;2023-11-19T01:19:46;1.15;;;0.80;;
43311;SDS011;30041;48.300;16.352;2023-11-19T01:22:12;1.30;;;0.90;;
43311;SDS011;30041;48.300;16.352;2023-11-19T01:24:37;1.85;;;1.00;;
43311;SDS011;30041;48.300;16.352;2023-11-19T01:27:02;1.00;;;0.70;;
43311;SDS011;30041;48.300;16.352;2023-11-19T01:29:28;2.35;;;0.93;;
43311;SDS011;30041;48.300;16.352;2023-11-19T01:31:53;1.77;;;0.88;;
43311;SDS011;30041;48.300;16.352;2023-11-19T01:34:19;1.45;;;0.98;;
43311;SDS011;30041;48.300;16.352;2023-11-19T01:36:44;2.28;;;1.08;;
43311;SDS011;30041;48.300;16.352;2023-11-19T01:39:11;1.10;;;0.80;;
43311;SDS011;30041;48.300;16.352;2023-11-19T01:41:37;1.38;;;0.88;;
43311;SDS011;30041;48.300;16.352;2023-11-19T01:44:02;2.33;;;0.90;;
43311;SDS011;30041;48.300;16.352;2023-11-19T01:46:28;1.65;;;1.00;;
43311;SDS011;30041;48.300;16.352;2023-11-19T01:48:55;2.05;;;1.38;;
43311;SDS011;30041;48.300;16.352;2023-11-19T01:51:21;1.92;;;0.88;;
43311;SDS011;30041;48.300;16.352;2023-11-19T01:53:47;1.77;;;1.00;;
43311;SDS011;30041;48.300;16.352;2023-11-19T01:56:14;1.27;;;0.90;;
43311;SDS011;30041;48.300;16.352;2023-11-19T01:58:40;1.17;;;0.88;;
43311;SDS011;30041;48.300;16.352;2023-11-19T02:01:06;1.45;;;0.90;;
43311;SDS011;30041;48.300;16.352;2023-11-19T02:03:32;1.48;;;1.00;;
43311;SDS011;30041;48.300;16.352;2023-11-19T02:06:01;1.77;;;1.13;;
43311;SDS011;30041;48.300;16.352;2023-11-19T02:08:27;1.75;;;1.02;;
43311;SDS011;30041;48.300;16.352;2023-11-19T02:10:54;1.52;;;0.90;;
43311;SDS011;30041;48.300;16.352;2023-11-19T02:13:19;1.27;;;0.80;;
43311;SDS011;30041;48.300;16.352;2023-11-19T02:15:44;1.02;;;0.80;;
43311;SDS011;30041;48.300;16.352;2023-11-19T02:18:19;0.88;;;0.73;;
43311;SDS011;30041;48.300;16.352;2023-11-19T02:20:54;1.75;;;1.10;;
43311;SDS011;30041;48.300;16.352;2023-11-19T02:23:20;2.08;;;1.02;;
43311;SDS011;30041;48.300;16.352;2023-11-19T02:28:24;1.40;;;1.00;;
43311;SDS011;30041;48.300;16.352;2023-11-19T02:30:49;1.20;;;0.90;;
43311;SDS011;30041;48.300;16.352;2023-11-19T02:33:17;1.00;;;0.80;;
43311;SDS011;30041;48.300;16.352;2023-11-19T02:35:43;1.58;;;1.08;;
43311;SDS011;30041;48.300;16.352;2023-11-19T02:38:08;1.45;;;0.90;;
43311;SDS011;30041;48.300;16.352;2023-11-19T02:40:34;1.40;;;0.90;;
43311;SDS011;30041;48.300;16.352;2023-11-19T02:42:59;1.48;;;0.75;;
43311;SDS011;30041;48.300;16.352;2023-11-19T02:45:25;1.38;;;1.02;;
43311;SDS011;30041;48.300;16.352;2023-11-19T02:47:51;1.67;;;1.00;;
43311;SDS011;30041;48.300;16.352;2023-11-19T02:50:20;0.98;;;0.70;;
43311;SDS011;30041;48.300;16.352;2023-11-19T02:52:46;1.38;;;1.00;;
43311;SDS011;30041;48.300;16.352;2023-11-19T02:55:11;1.15;;;0.95;;
43311;SDS011;30041;48.300;16.352;2023-11-19T02:57:37;1.25;;;0.90;;
43311;SDS011;30041;48.300;16.352;2023-11-19T03:00:03;1.55;;;0.95;;
43311;SDS011;30041;48.300;16.352;2023-11-19T03:02:29;1.42;;;1.05;;
43311;SDS011;30041;48.300;16.352;2023-11-19T03:04:54;1.00;;;0.80;;
43311;SDS011;30041;48.300;16.352;2023-11-19T03:07:20;0.85;;;0.60;;
43311;SDS011;30041;48.300;16.352;2023-11-19T03:09:45;1.20;;;0.90;;
43311;SDS011;30041;48.300;16.352;2023-11-19T03:12:11;1.23;;;0.82;;
43311;SDS011;30041;48.300;16.352;2023-11-19T03:14:36;0.95;;;0.70;;
43311;SDS011;30041;48.300;16.352;2023-11-19T03:17:01;0.98;;;0.70;;
43311;SDS011;30041;48.300;16.352;2023-11-19T03:19:27;0.95;;;0.77;;
43311;SDS011;30041;48.300;16.352;2023-11-19T03:21:52;1.25;;;0.80;;
43311;SDS011;30041;48.300;16.352;2023-11-19T03:24:18;1.17;;;0.80;;
43311;SDS011;30041;48.300;16.352;2023-11-19T03:26:48;1.27;;;0.80;;
43311;SDS011;30041;48.300;16.352;2023-11-19T03:29:14;1.08;;;0.77;;
43311;SDS011;30041;48.300;16.352;2023-11-19T03:31:42;0.93;;;0.63;;
43311;SDS011;30041;48.300;16.352;2023-11-19T03:34:07;1.05;;;0.73;;
43311;SDS011;30041;48.300;16.352;2023-11-19T03:36:33;0.93;;;0.73;;
43311;SDS011;30041;48.300;16.352;2023-11-19T03:38:58;0.90;;;0.70;;
43311;SDS011;30041;48.300;16.352;2023-11-19T03:41:23;0.90;;;0.70;;
43311;SDS011;30041;48.300;16.352;2023-11-19T03:43:49;0.98;;;0.80;;
43311;SDS011;30041;48.300;16.352;2023-11-19T03:48:43;0.68;;;0.60;;
43311;SDS011;30041;48.300;16.352;2023-11-19T03:51:08;1.38;;;0.80;;
43311;SDS011;30041;48.300;16.352;2023-11-19T03:53:34;1.35;;;0.80;;
43311;SDS011;30041;48.300;16.352;2023-11-19T03:56:00;1.48;;;0.90;;
43311;SDS011;30041;48.300;16.352;2023-11-19T03:58:25;1.33;;;0.90;;
43311;SDS011;30041;48.300;16.352;2023-11-19T04:00:51;0.88;;;0.68;;
43311;SDS011;30041;48.300;16.352;2023-11-19T04:03:16;0.90;;;0.70;;
43311;SDS011;30041;48.300;16.352;2023-11-19T04:05:41;0.70;;;0.57;;
43311;SDS011;30041;48.300;16.352;2023-11-19T04:08:09;1.05;;;0.50;;
43311;SDS011;30041;48.300;16.352;2023-11-19T04:10:34;1.60;;;0.80;;
43311;SDS011;30041;48.300;16.352;2023-11-19T04:13:00;0.93;;;0.70;;
43311;SDS011;30041;48.300;16.352;2023-11-19T04:15:25;1.15;;;0.60;;
43311;SDS011;30041;48.300;16.352;2023-11-19T04:17:50;1.08;;;0.60;;
43311;SDS011;30041;48.300;16.352;2023-11-19T04:20:16;0.70;;;0.50;;
43311;SDS011;30041;48.300;16.352;2023-11-19T04:22:41;0.90;;;0.50;;
43311;SDS011;30041;48.300;16.352;2023-11-19T04:25:07;0.60;;;0.47;;
43311;SDS011;30041;48.300;16.352;2023-11-19T04:27:33;0.93;;;0.60;;
43311;SDS011;30041;48.300;16.352;2023-11-19T04:29:58;0.90;;;0.70;;
43311;SDS011;30041;48.300;16.352;2023-11-19T04:32:23;0.73;;;0.60;;
43311;SDS011;30041;48.300;16.352;2023-11-19T04:34:49;0.90;;;0.70;;
43311;SDS011;30041;48.300;16.352;2023-11-19T04:37:14;1.00;;;0.60;;
43311;SDS011;30041;48.300;16.352;2023-11-19T04:39:40;0.52;;;0.47;;
43311;SDS011;30041;48.300;16.352;2023-11-19T04:42:05;1.08;;;0.60;;
43311;SDS011;30041;48.300;16.352;2023-11-19T04:44:31;0.65;;;0.60;;
43311;SDS011;30041;48.300;16.352;2023-11-19T04:46:56;0.75;;;0.60;;
43311;SDS011;30041;48.300;16.352;2023-11-19T04:49:21;1.10;;;0.68;;
43311;SDS011;30041;48.300;16.352;2023-11-19T04:51:47;0.88;;;0.60;;
43311;SDS011;30041;48.300;16.352;2023-11-19T04:54:12;0.93;;;0.60;;
43311;SDS011;30041;48.300;16.352;2023-11-19T04:56:38;0.63;;;0.40;;
43311;SDS011;30041;48.300;16.352;2023-11-19T04:59:04;0.90;;;0.68;;
43311;SDS011;30041;48.300;16.352;2023-11-19T05:01:29;0.52;;;0.45;;
43311;SDS011;30041;48.300;16.352;2023-11-19T05:03:56;0.80;;;0.60;;
43311;SDS011;30041;48.300;16.352;2023-11-19T05:06:21;0.40;;;0.30;;
43311;SDS011;30041;48.300;16.352;2023-11-19T05:08:49;0.98;;;0.50;;
43311;SDS011;30041;48.300;16.352;2023-11-19T05:11:15;1.00;;;0.70;;
43311;SDS011;30041;48.300;16.352;2023-11-19T05:13:40;0.60;;;0.40;;
43311;SDS011;30041;48.300;16.352;2023-11-19T05:16:06;0.98;;;0.50;;
43311;SDS011;30041;48.300;16.352;2023-11-19T05:18:32;0.60;;;0.55;;
43311;SDS011;30041;48.300;16.352;2023-11-19T05:20:57;0.60;;;0.50;;
43311;SDS011;30041;48.300;16.352;2023-11-19T05:23:22;0.52;;;0.50;;
43311;SDS011;30041;48.300;16.352;2023-11-19T05:25:48;0.73;;;0.47;;
43311;SDS011;30041;48.300;16.352;2023-11-19T05:28:13;0.45;;;0.40;;
43311;SDS011;30041;48.300;16.352;2023-11-19T05:30:38;0.95;;;0.40;;
43311;SDS011;30041;48.300;16.352;2023-11-19T05:33:04;0.95;;;0.50;;
43311;SDS011;30041;48.300;16.352;2023-11-19T05:35:29;1.08;;;0.47;;
43311;SDS011;30041;48.300;16.352;2023-11-19T05:37:54;0.75;;;0.50;;
43311;SDS011;30041;48.300;16.352;2023-11-19T05:40:20;0.60;;;0.40;;
43311;SDS011;30041;48.300;16.352;2023-11-19T05:42:45;0.60;;;0.40;;
43311;SDS011;30041;48.300;16.352;2023-11-19T05:45:11;0.50;;;0.43;;
43311;SDS011;30041;48.300;16.352;2023-11-19T05:47:37;0.57;;;0.32;;
43311;SDS011;30041;48.300;16.352;2023-11-19T05:50:02;0.55;;;0.32;;
43311;SDS011;30041;48.300;16.352;2023-11-19T05:52:28;0.90;;;0.50;;
43311;SDS011;30041;48.300;16.352;2023-11-19T05:54:53;0.63;;;0.50;;
43311;SDS011;30041;48.300;16.352;2023-11-19T05:57:18;0.40;;;0.30;;
43311;SDS011;30041;48.300;16.352;2023-11-19T05:59:45;0.40;;;0.40;;
43311;SDS011;30041;48.300;16.352;2023-11-19T06:02:10;0.70;;;0.50;;
43311;SDS011;30041;48.300;16.352;2023-11-19T06:04:35;0.68;;;0.50;;
43311;SDS011;30041;48.300;16.352;2023-11-19T06:07:01;1.30;;;0.60;;
43311;SDS011;30041;48.300;16.352;2023-11-19T06:09:26;0.80;;;0.60;;
43311;SDS011;30041;48.300;16.352;2023-11-19T06:11:51;0.63;;;0.50;;
43311;SDS011;30041;48.300;16.352;2023-11-19T06:14:17;1.05;;;0.63;;
43311;SDS011;30041;48.300;16.352;2023-11-19T06:16:43;1.10;;;0.50;;
43311;SDS011;30041;48.300;16.352;2023-11-19T06:19:08;0.63;;;0.50;;
43311;SDS011;30041;48.300;16.352;2023-11-19T06:21:33;0.70;;;0.50;;
43311;SDS011;30041;48.300;16.352;2023-11-19T06:23:59;0.60;;;0.40;;
43311;SDS011;30041;48.300;16.352;2023-11-19T06:26:24;1.10;;;0.60;;
43311;SDS011;30041;48.300;16.352;2023-11-19T06:28:49;0.80;;;0.60;;
43311;SDS011;30041;48.300;16.352;2023-11-19T06:31:15;0.60;;;0.50;;
43311;SDS011;30041;48.300;16.352;2023-11-19T06:33:40;0.60;;;0.50;;
43311;SDS011;30041;48.300;16.352;2023-11-19T06:36:06;1.15;;;0.80;;
43311;SDS011;30041;48.300;16.352;2023-11-19T06:38:32;1.13;;;0.70;;
43311;SDS011;30041;48.300;16.352;2023-11-19T06:40:57;1.13;;;0.60;;
43311;SDS011;30041;48.300;16.352;2023-11-19T06:43:22;0.50;;;0.50;;
43311;SDS011;30041;48.300;16.352;2023-11-19T06:45:48;1.00;;;0.60;;
43311;SDS011;30041;48.300;16.352;2023-11-19T06:48:13;0.90;;;0.70;;
43311;SDS011;30041;48.300;16.352;2023-11-19T06:50:39;1.50;;;0.65;;
43311;SDS011;30041;48.300;16.352;2023-11-19T06:53:04;1.08;;;0.70;;
43311;SDS011;30041;48.300;16.352;2023-11-19T06:55:29;1.27;;;0.70;;
43311;SDS011;30041;48.300;16.352;2023-11-19T06:57:55;1.33;;;0.90;;
43311;SDS011;30041;48.300;16.352;2023-11-19T07:00:23;1.60;;;1.02;;
43311;SDS011;30041;48.300;16.352;2023-11-19T07:02:48;1.00;;;0.88;;
43311;SDS011;30041;48.300;16.352;2023-11-19T07:05:13;1.35;;;1.10;;
43311;SDS011;30041;48.300;16.352;2023-11-19T07:07:39;2.53;;;1.38;;
43311;SDS011;30041;48.300;16.352;2023-11-19T07:10:04;1.75;;;1.20;;
43311;SDS011;30041;48.300;16.352;2023-11-19T07:12:30;2.05;;;1.30;;
43311;SDS011;30041;48.300;16.352;2023-11-19T07:14:55;1.58;;;1.02;;
43311;SDS011;30041;48.300;16.352;2023-11-19T07:17:21;1.65;;;1.30;;
43311;SDS011;30041;48.300;16.352;2023-11-19T07:19:46;1.80;;;1.30;;
43311;SDS011;30041;48.300;16.352;2023-11-19T07:22:14;3.05;;;1.33;;
43311;SDS011;30041;48.300;16.352;2023-11-19T07:24:39;1.88;;;1.35;;
43311;SDS011;30041;48.300;16.352;2023-11-19T07:27:07;3.28;;;1.40;;
43311;SDS011;30041;48.300;16.352;2023-11-19T07:29:32;1.85;;;1.20;;
43311;SDS011;30041;48.300;16.352;2023-11-19T07:31:58;2.22;;;1.30;;
43311;SDS011;30041;48.300;16.352;2023-11-19T07:34:24;3.25;;;1.40;;
43311;SDS011;30041;48.300;16.352;2023-11-19T07:36:49;3.45;;;1.20;;
43311;SDS011;30041;48.300;16.352;2023-11-19T07:39:15;1.67;;;1.35;;
43311;SDS011;30041;48.300;16.352;2023-11-19T07:41:40;2.00;;;1.42;;
43311;SDS011;30041;48.300;16.352;2023-11-19T07:44:06;2.05;;;1.42;;
43311;SDS011;30041;48.300;16.352;2023-11-19T07:46:31;2.85;;;1.63;;
43311;SDS011;30041;48.300;16.352;2023-11-19T07:48:56;2.97;;;1.70;;
43311;SDS011;30041;48.300;16.352;2023-11-19T07:51:22;2.78;;;1.90;;
43311;SDS011;30041;48.300;16.352;2023-11-19T07:53:47;4.05;;;1.90;;
43311;SDS011;30041;48.300;16.352;2023-11-19T07:56:12;3.42;;;1.63;;
43311;SDS011;30041;48.300;16.352;2023-11-19T07:58:38;3.13;;;1.80;;
43311;SDS011;30041;48.300;16.352;2023-11-19T08:01:03;2.58;;;1.75;;
43311;SDS011;30041;48.300;16.352;2023-11-19T08:03:30;2.30;;;1.63;;
43311;SDS011;30041;48.300;16.352;2023-11-19T08:05:55;2.50;;;1.58;;
43311;SDS011;30041;48.300;16.352;2023-11-19T08:08:21;2.17;;;1.77;;
43311;SDS011;30041;48.300;16.352;2023-11-19T08:10:46;2.78;;;1.75;;
43311;SDS011;30041;48.300;16.352;2023-11-19T08:13:12;2.45;;;2.08;;
43311;SDS011;30041;48.300;16.352;2023-11-19T08:15:37;3.15;;;2.45;;
43311;SDS011;30041;48.300;16.352;2023-11-19T08:18:03;3.35;;;2.78;;
43311;SDS011;30041;48.300;16.352;2023-11-19T08:20:28;3.10;;;2.50;;
43311;SDS011;30041;48.300;16.352;2023-11-19T08:22:53;3.10;;;2.60;;
43311;SDS011;30041;48.300;16.352;2023-11-19T08:25:19;4.20;;;2.88;;
43311;SDS011;30041;48.300;16.352;2023-11-19T08:27:44;3.20;;;2.40;;
43311;SDS011;30041;48.300;16.352;2023-11-19T08:30:10;3.60;;;2.47;;
43311;SDS011;30041;48.300;16.352;2023-11-19T08:32:36;3.95;;;2.40;;
43311;SDS011;30041;48.300;16.352;2023-11-19T08:35:02;3.28;;;2.40;;
43311;SDS011;30041;48.300;16.352;2023-11-19T08:37:27;4.22;;;3.00;;
43311;SDS011;30041;48.300;16.352;2023-11-19T08:39:52;4.25;;;2.50;;
43311;SDS011;30041;48.300;16.352;2023-11-19T08:42:18;3.08;;;2.30;;
43311;SDS011;30041;48.300;16.352;2023-11-19T08:44:43;3.83;;;2.55;;
43311;SDS011;30041;48.300;16.352;2023-11-19T08:47:11;2.60;;;2.00;;
43311;SDS011;30041;48.300;16.352;2023-11-19T08:49:37;3.30;;;2.42;;
43311;SDS011;30041;48.300;16.352;2023-11-19T08:52:03;4.00;;;2.10;;
43311;SDS011;30041;48.300;16.352;2023-11-19T08:54:28;4.13;;;2.17;;
43311;SDS011;30041;48.300;16.352;2023-11-19T08:56:54;3.47;;;2.25;;
43311;SDS011;30041;48.300;16.352;2023-11-19T08:59:19;4.25;;;2.40;;
43311;SDS011;30041;48.300;16.352;2023-11-19T09:01:44;3.65;;;2.47;;
43311;SDS011;30041;48.300;16.352;2023-11-19T09:04:10;3.65;;;2.03;;
43311;SDS011;30041;48.300;16.352;2023-11-19T09:06:36;3.15;;;1.90;;
43311;SDS011;30041;48.300;16.352;2023-11-19T09:09:01;3.88;;;2.00;;
43311;SDS011;30041;48.300;16.352;2023-11-19T09:11:27;5.22;;;2.13;;
43311;SDS011;30041;48.300;16.352;2023-11-19T09:13:52;5.07;;;1.95;;
43311;SDS011;30041;48.300;16.352;2023-11-19T09:16:18;4.88;;;2.10;;
43311;SDS011;30041;48.300;16.352;2023-11-19T09:18:43;4.25;;;2.15;;
43311;SDS011;30041;48.300;16.352;2023-11-19T09:21:10;4.25;;;1.90;;
43311;SDS011;30041;48.300;16.352;2023-11-19T09:23:38;4.63;;;2.30;;
43311;SDS011;30041;48.300;16.352;2023-11-19T09:26:04;2.67;;;1.83;;
43311;SDS011;30041;48.300;16.352;2023-11-19T09:28:33;2.28;;;1.73;;
43311;SDS011;30041;48.300;16.352;2023-11-19T09:30:58;3.47;;;1.92;;
43311;SDS011;30041;48.300;16.352;2023-11-19T09:33:24;2.95;;;1.70;;
43311;SDS011;30041;48.300;16.352;2023-11-19T09:35:49;4.30;;;1.95;;
43311;SDS011;30041;48.300;16.352;2023-11-19T09:38:15;3.05;;;1.77;;
43311;SDS011;30041;48.300;16.352;2023-11-19T09:40:40;3.00;;;1.60;;
43311;SDS011;30041;48.300;16.352;2023-11-19T09:43:08;2.83;;;1.70;;
43311;SDS011;30041;48.300;16.352;2023-11-19T09:45:46;3.85;;;1.90;;
43311;SDS011;30041;48.300;16.352;2023-11-19T09:48:13;4.80;;;1.90;;
43311;SDS011;30041;48.300;16.352;2023-11-19T09:50:41;5.05;;;2.00;;
43311;SDS011;30041;48.300;16.352;2023-11-19T09:53:07;4.93;;;1.90;;
43311;SDS011;30041;48.300;16.352;2023-11-19T09:55:32;4.65;;;2.10;;
43311;SDS011;30041;48.300;16.352;2023-11-19T09:57:58;3.60;;;1.88;;
43311;SDS011;30041;48.300;16.352;2023-11-19T10:00:27;4.32;;;1.73;;
43311;SDS011;30041;48.300;16.352;2023-11-19T10:02:53;3.90;;;1.80;;
43311;SDS011;30041;48.300;16.352;2023-11-19T10:05:20;4.30;;;1.70;;
43311;SDS011;30041;48.300;16.352;2023-11-19T10:07:46;3.28;;;1.50;;
43311;SDS011;30041;48.300;16.352;2023-11-19T10:10:12;3.58;;;1.60;;
43311;SDS011;30041;48.300;16.352;2023-11-19T10:12:37;4.05;;;1.60;;
43311;SDS011;30041;48.300;16.352;2023-11-19T10:15:03;4.97;;;1.70;;
43311;SDS011;30041;48.300;16.352;2023-11-19T10:17:34;7.53;;;1.75;;
43311;SDS011;30041;48.300;16.352;2023-11-19T10:19:59;3.53;;;1.90;;
43311;SDS011;30041;48.300;16.352;2023-11-19T10:22:25;4.43;;;1.50;;
43311;SDS011;30041;48.300;16.352;2023-11-19T10:24:52;3.83;;;1.63;;
43311;SDS011;30041;48.300;16.352;2023-11-19T10:27:18;8.55;;;1.92;;
43311;SDS011;30041;48.300;16.352;2023-11-19T10:29:46;9.25;;;2.15;;
43311;SDS011;30041;48.300;16.352;2023-11-19T10:32:12;3.78;;;1.90;;
43311;SDS011;30041;48.300;16.352;2023-11-19T10:34:38;4.63;;;1.65;;
43311;SDS011;30041;48.300;16.352;2023-11-19T10:37:03;4.20;;;1.52;;
43311;SDS011;30041;48.300;16.352;2023-11-19T10:39:37;3.33;;;1.77;;
43311;SDS011;30041;48.300;16.352;2023-11-19T10:42:17;5.05;;;1.70;;
43311;SDS011;30041;48.300;16.352;2023-11-19T10:44:43;5.70;;;1.63;;
43311;SDS011;30041;48.300;16.352;2023-11-19T10:47:08;6.03;;;2.60;;
43311;SDS011;30041;48.300;16.352;2023-11-19T10:49:35;8.57;;;2.53;;
43311;SDS011;30041;48.300;16.352;2023-11-19T10:52:01;7.85;;;1.90;;
43311;SDS011;30041;48.300;16.352;2023-11-19T10:54:26;6.65;;;1.88;;
43311;SDS011;30041;48.300;16.352;2023-11-19T10:56:55;7.35;;;1.90;;
43311;SDS011;30041;48.300;16.352;2023-11-19T10:59:25;7.13;;;2.00;;
43311;SDS011;30041;48.300;16.352;2023-11-19T11:01:53;5.13;;;1.70;;
43311;SDS011;30041;48.300;16.352;2023-11-19T11:04:24;4.57;;;1.60;;
43311;SDS011;30041;48.300;16.352;2023-11-19T11:06:50;8.05;;;1.88;;
43311;SDS011;30041;48.300;16.352;2023-11-19T11:09:16;7.95;;;1.90;;
43311;SDS011;30041;48.300;16.352;2023-11-19T11:11:44;7.82;;;2.00;;
43311;SDS011;30041;48.300;16.352;2023-11-19T11:14:12;9.98;;;1.98;;
43311;SDS011;30041;48.300;16.352;2023-11-19T11:16:39;7.88;;;1.88;;
43311;SDS011;30041;48.300;16.352;2023-11-19T11:19:15;7.32;;;1.92;;
43311;SDS011;30041;48.300;16.352;2023-11-19T11:21:41;11.13;;;2.20;;
43311;SDS011;30041;48.300;16.352;2023-11-19T11:27:02;6.30;;;2.35;;
43311;SDS011;30041;48.300;16.352;2023-11-19T11:32:47;7.88;;;2.22;;
43311;SDS011;30041;48.300;16.352;2023-11-19T11:38:10;4.85;;;1.92;;
43311;SDS011;30041;48.300;16.352;2023-11-19T11:40:39;4.32;;;2.20;;
43311;SDS011;30041;48.300;16.352;2023-11-19T11:43:04;5.03;;;2.05;;
43311;SDS011;30041;48.300;16.352;2023-11-19T11:48:59;6.38;;;2.30;;
43311;SDS011;30041;48.300;16.352;2023-11-19T11:54:10;6.65;;;2.20;;
43311;SDS011;30041;48.300;16.352;2023-11-19T11:57:01;5.90;;;2.13;;
43311;SDS011;30041;48.300;16.352;2023-11-19T11:59:27;5.63;;;2.00;;
43311;SDS011;30041;48.300;16.352;2023-11-19T12:02:01;4.43;;;1.95;;
43311;SDS011;30041;48.300;16.352;2023-11-19T12:04:28;4.88;;;1.77;;
43311;SDS011;30041;48.300;16.352;2023-11-19T12:07:13;4.15;;;1.67;;
43311;SDS011;30041;48.300;16.352;2023-11-19T12:09:41;6.97;;;1.70;;
43311;SDS011;30041;48.300;16.352;2023-11-19T12:12:12;5.00;;;1.90;;
43311;SDS011;30041;48.300;16.352;2023-11-19T12:17:56;5.70;;;1.85;;
43311;SDS011;30041;48.300;16.352;2023-11-19T12:20:15;4.72;;;2.00;;
43311;SDS011;30041;48.300;16.352;2023-11-19T12:22:42;3.58;;;2.22;;
43311;SDS011;30041;48.300;16.352;2023-11-19T12:25:11;3.65;;;1.90;;
43311;SDS011;30041;48.300;16.352;2023-11-19T12:27:41;4.45;;;2.40;;
43311;SDS011;30041;48.300;16.352;2023-11-19T12:30:08;5.35;;;2.42;;
43311;SDS011;30041;48.300;16.352;2023-11-19T12:32:41;3.95;;;2.42;;
43311;SDS011;30041;48.300;16.352;2023-11-19T12:35:10;4.47;;;2.33;;
43311;SDS011;30041;48.300;16.352;2023-11-19T12:37:43;5.35;;;3.15;;
43311;SDS011;30041;48.300;16.352;2023-11-19T12:40:22;3.72;;;2.78;;
43311;SDS011;30041;48.300;16.352;2023-11-19T12:42:49;5.50;;;2.85;;
43311;SDS011;30041;48.300;16.352;2023-11-19T12:45:18;4.50;;;3.30;;
43311;SDS011;30041;48.300;16.352;2023-11-19T12:47:44;4.57;;;2.78;;
43311;SDS011;30041;48.300;16.352;2023-11-19T12:50:09;4.35;;;2.80;;
43311;SDS011;30041;48.300;16.352;2023-11-19T12:52:35;5.60;;;3.10;;
43311;SDS011;30041;48.300;16.352;2023-11-19T12:55:04;3.65;;;2.97;;
43311;SDS011;30041;48.300;16.352;2023-11-19T12:57:48;5.68;;;3.60;;
43311;SDS011;30041;48.300;16.352;2023-11-19T13:00:23;4.75;;;3.35;;
43311;SDS011;30041;48.300;16.352;2023-11-19T13:02:50;5.55;;;3.50;;
43311;SDS011;30041;48.300;16.352;2023-11-19T13:05:29;6.13;;;3.28;;
43311;SDS011;30041;48.300;16.352;2023-11-19T13:08:08;23.73;;;11.43;;
43311;SDS011;30041;48.300;16.352;2023-11-19T13:10:50;24.58;;;16.33;;
43311;SDS011;30041;48.300;16.352;2023-11-19T13:13:17;12.38;;;10.60;;
43311;SDS011;30041;48.300;16.352;2023-11-19T13:15:42;9.40;;;7.30;;
43311;SDS011;30041;48.300;16.352;2023-11-19T13:18:07;11.05;;;6.97;;
43311;SDS011;30041;48.300;16.352;2023-11-19T13:20:33;11.18;;;6.32;;
43311;SDS011;30041;48.300;16.352;2023-11-19T13:23:02;8.95;;;6.13;;
43311;SDS011;30041;48.300;16.352;2023-11-19T13:25:29;9.95;;;5.78;;
43311;SDS011;30041;48.300;16.352;2023-11-19T13:27:55;9.30;;;5.90;;
43311;SDS011;30041;48.300;16.352;2023-11-19T13:30:21;8.30;;;5.70;;
43311;SDS011;30041;48.300;16.352;2023-11-19T13:32:50;8.50;;;5.45;;
43311;SDS011;30041;48.300;16.352;2023-11-19T13:35:16;7.90;;;4.90;;
43311;SDS011;30041;48.300;16.352;2023-11-19T13:37:42;8.27;;;5.00;;
43311;SDS011;30041;48.300;16.352;2023-11-19T13:40:07;9.30;;;4.85;;
43311;SDS011;30041;48.300;16.352;2023-11-19T13:42:33;8.75;;;4.63;;
43311;SDS011;30041;48.300;16.352;2023-11-19T13:44:58;11.10;;;4.95;;
43311;SDS011;30041;48.300;16.352;2023-11-19T13:47:24;7.93;;;4.65;;
43311;SDS011;30041;48.300;16.352;2023-11-19T13:49:51;8.02;;;4.43;;
43311;SDS011;30041;48.300;16.352;2023-11-19T13:52:17;6.75;;;4.22;;
43311;SDS011;30041;48.300;16.352;2023-11-19T13:54:42;7.18;;;3.92;;
43311;SDS011;30041;48.300;16.352;2023-11-19T13:57:10;7.05;;;4.13;;
43311;SDS011;30041;48.300;16.352;2023-11-19T13:59:39;6.60;;;4.15;;
43311;SDS011;30041;48.300;16.352;2023-11-19T14:02:05;10.85;;;4.30;;
43311;SDS011;30041;48.300;16.352;2023-11-19T14:04:30;6.40;;;4.20;;
43311;SDS011;30041;48.300;16.352;2023-11-19T14:06:55;9.20;;;4.30;;
43311;SDS011;30041;48.300;16.352;2023-11-19T14:09:21;6.38;;;3.90;;
43311;SDS011;30041;48.300;16.352;2023-11-19T14:11:46;5.63;;;3.80;;
43311;SDS011;30041;48.300;16.352;2023-11-19T14:14:11;7.90;;;4.07;;
43311;SDS011;30041;48.300;16.352;2023-11-19T14:16:37;6.47;;;4.18;;
43311;SDS011;30041;48.300;16.352;2023-11-19T14:19:02;6.78;;;4.05;;
43311;SDS011;30041;48.300;16.352;2023-11-19T14:21:28;13.55;;;4.32;;
43311;SDS011;30041;48.300;16.352;2023-11-19T14:23:53;6.40;;;3.58;;
43311;SDS011;30041;48.300;16.352;2023-11-19T14:26:18;7.97;;;3.83;;
43311;SDS011;30041;48.300;16.352;2023-11-19T14:28:44;6.45;;;3.97;;
43311;SDS011;30041;48.300;16.352;2023-11-19T14:31:09;6.68;;;3.83;;
43311;SDS011;30041;48.300;16.352;2023-11-19T14:33:35;6.57;;;3.90;;
43311;SDS011;30041;48.300;16.352;2023-11-19T14:36:00;7.72;;;4.18;;
43311;SDS011;30041;48.300;16.352;2023-11-19T14:38:25;8.07;;;4.20;;
43311;SDS011;30041;48.300;16.352;2023-11-19T14:40:51;5.90;;;4.10;;
43311;SDS011;30041;48.300;16.352;2023-11-19T14:43:16;5.75;;;4.25;;
43311;SDS011;30041;48.300;16.352;2023-11-19T14:45:42;7.28;;;3.97;;
43311;SDS011;30041;48.300;16.352;2023-11-19T14:48:07;8.38;;;4.70;;
43311;SDS011;30041;48.300;16.352;2023-11-19T14:50:32;7.47;;;3.72;;
43311;SDS011;30041;48.300;16.352;2023-11-19T14:52:58;8.00;;;3.95;;